Terminal Aerodrome Forecast
Issued by NWS

Current Version | Previous Version | Graphics & Text | Print | Product List | Glossary On
Versions: 1 2 3 4 5 6 7 8 9 10 11 12 13 14 15 16 17 18
000
FTUS41 KPBZ 222328
TAFMGW
TAF
KMGW 222328Z 2300/2324 03003KT P6SM SCT080
     FM230700 00000KT 5SM BR SCT050
     FM231300 00000KT P6SM SCT040
     FM231700 02003KT P6SM BKN050=

USA.gov is the U.S. government's official web portal to all federal, state and local government web resources and services.